Time;durP1;ratioP1;P1;durP2;ratioP2;P2;SDS_P1;SDS_P2;PMS_P1;PMS_P2;Temp;Humidity;BMP_temperature;BMP_pressure;BME280_temperature;BME280_humidity;BME280_pressure;Samples;Min_cycle;Max_cycle;Signal;HPM_P1;HPM_P2
2022/08/02 00:01:03;;;;;;;3.13;2.03;;;19.50;97.40;;;20.48;100.00;98382.19;5058795;28;20456;-78
2022/08/02 00:03:33;;;;;;;2.67;2.17;;;19.50;97.60;;;20.42;100.00;98372.53;5059392;28;20503;-79
2022/08/02 00:06:03;;;;;;;2.63;1.90;;;19.50;97.50;;;20.38;100.00;98382.03;5058305;28;20457;-79
2022/08/02 00:08:32;;;;;;;2.80;1.90;;;19.40;97.60;;;20.37;100.00;98382.28;5058293;28;20465;-79
2022/08/02 00:11:01;;;;;;;2.70;2.20;;;19.40;97.50;;;20.31;100.00;98377.91;5059092;28;20503;-78
2022/08/02 00:13:32;;;;;;;3.00;2.27;;;19.30;97.70;;;20.28;100.00;98379.22;5058253;28;20468;-79
2022/08/02 00:16:01;;;;;;;3.13;2.27;;;19.30;97.70;;;20.28;100.00;98383.72;5058552;28;20530;-78
2022/08/02 00:18:31;;;;;;;2.73;2.53;;;19.30;97.60;;;20.23;100.00;98379.13;5060533;28;20543;-78
2022/08/02 00:21:00;;;;;;;7.80;2.80;;;19.30;98.00;;;20.27;100.00;98376.78;5058652;28;20526;-78
2022/08/02 00:23:29;;;;;;;2.63;2.07;;;19.30;97.70;;;20.27;100.00;98377.59;5058218;28;20492;-78
2022/08/02 00:25:58;;;;;;;2.77;2.30;;;19.40;97.30;;;20.17;100.00;98380.06;5057089;28;20999;-78
2022/08/02 00:28:27;;;;;;;4.50;2.50;;;19.30;97.50;;;20.15;100.00;98381.34;5057887;28;20464;-78
2022/08/02 00:30:57;;;;;;;3.23;2.63;;;19.20;97.80;;;20.14;100.00;98379.72;5060254;28;20469;-78
2022/08/02 00:33:27;;;;;;;2.50;2.30;;;19.20;97.70;;;20.08;100.00;98381.50;5059219;28;20982;-79
2022/08/02 00:36:17;;;;;;;2.90;2.10;;;19.20;97.80;;;20.05;100.00;98379.34;5058321;28;20480;-78
2022/08/02 00:38:46;;;;;;;3.00;2.23;;;19.10;97.80;;;19.93;100.00;98379.38;5055558;28;20463;-79
2022/08/02 00:41:20;;;;;;;5.47;2.83;;;19.10;97.90;;;19.90;100.00;98376.41;5058978;28;20472;-78
2022/08/02 00:43:51;;;;;;;2.57;2.17;;;19.10;97.90;;;19.85;100.00;98377.13;5059797;28;21302;-78
2022/08/02 00:46:21;;;;;;;3.37;2.30;;;19.00;98.00;;;19.84;100.00;98369.41;5059221;28;20503;-78
2022/08/02 00:48:50;;;;;;;4.67;2.60;;;18.90;98.10;;;19.79;100.00;98379.91;5057915;28;20468;-79
2022/08/02 00:51:20;;;;;;;3.10;2.03;;;18.90;98.30;;;19.80;100.00;98377.03;5058718;28;20452;-79
2022/08/02 00:53:49;;;;;;;3.20;2.63;;;18.90;98.20;;;19.81;100.00;98372.53;5058811;28;20534;-79
2022/08/02 00:56:17;;;;;;;12.53;2.57;;;18.80;98.50;;;19.77;100.00;98371.38;5058776;28;20931;-78
2022/08/02 00:58:46;;;;;;;2.90;2.60;;;18.80;98.20;;;19.74;100.00;98380.63;5058124;28;20851;-78
2022/08/02 01:01:16;;;;;;;2.80;2.50;;;18.80;98.10;;;19.72;100.00;98379.25;5057369;28;20942;-78
2022/08/02 01:03:45;;;;;;;4.10;2.30;;;18.80;98.40;;;19.71;100.00;98380.31;5056944;28;20998;-78
2022/08/02 01:06:13;;;;;;;3.57;2.20;;;18.80;98.10;;;19.70;100.00;98384.00;5057149;28;20515;-79
2022/08/02 01:08:44;;;;;;;2.83;2.53;;;18.70;98.40;;;19.69;100.00;98385.03;5054274;28;20849;-78
2022/08/02 01:11:13;;;;;;;2.70;2.40;;;18.70;98.50;;;19.65;100.00;98382.03;5056437;28;20469;-78
2022/08/02 01:13:42;;;;;;;2.73;2.17;;;18.70;98.60;;;19.55;100.00;98379.19;5054690;28;20498;-78
2022/08/02 01:16:20;;;;;;;2.23;1.93;;;18.60;98.50;;;19.49;100.00;98388.09;5054233;28;20502;-78
2022/08/02 01:18:57;;;;;;;4.80;2.40;;;18.60;98.50;;;19.46;100.00;98384.09;5052548;28;20549;-78
2022/08/02 01:21:47;;;;;;;3.07;2.10;;;18.60;98.70;;;19.43;100.00;98389.88;5055758;28;20500;-79
2022/08/02 01:24:47;;;;;;;2.27;2.07;;;18.40;98.80;;;19.46;100.00;98386.75;5054278;28;20542;-79
2022/08/02 01:27:37;;;;;;;3.00;2.13;;;18.40;98.90;;;19.46;100.00;98385.94;5055626;28;20480;-78
2022/08/02 01:30:08;;;;;;;3.00;2.70;;;18.50;98.80;;;19.41;100.00;98381.31;5054343;28;20464;-78
2022/08/02 01:32:48;;;;;;;2.70;2.37;;;18.40;98.90;;;19.40;100.00;98390.28;5052091;28;21058;-79
2022/08/02 01:35:28;;;;;;;3.23;2.67;;;18.40;98.90;;;19.39;100.00;98388.69;5054794;28;20474;-78
2022/08/02 01:38:23;;;;;;;5.17;2.37;;;18.40;98.80;;;19.41;100.00;98388.47;5055535;28;20489;-79
2022/08/02 01:40:57;;;;;;;3.27;2.40;;;18.40;98.90;;;19.32;100.00;98392.50;5056070;28;20460;-78
2022/08/02 01:43:29;;;;;;;3.43;2.10;;;18.40;99.00;;;19.34;100.00;98393.06;5056680;28;21065;-79
2022/08/02 01:46:02;;;;;;;4.07;2.70;;;18.40;99.00;;;19.34;100.00;98390.41;5058559;28;21034;-78
2022/08/02 01:48:34;;;;;;;3.90;2.70;;;18.30;99.10;;;19.31;100.00;98390.88;5057208;28;20865;-79
2022/08/02 01:51:08;;;;;;;2.97;2.43;;;18.30;99.10;;;19.23;100.00;98396.56;5059318;28;20565;-78
2022/08/02 01:53:40;;;;;;;4.87;2.50;;;18.30;99.10;;;19.15;100.00;98391.63;5055886;28;20456;-79
2022/08/02 01:56:12;;;;;;;3.30;2.37;;;18.30;99.20;;;19.08;100.00;98387.25;5061476;28;20527;-78
2022/08/02 01:58:44;;;;;;;5.40;2.57;;;18.20;99.40;;;19.09;100.00;98386.19;5062735;28;20592;-78
2022/08/02 02:01:16;;;;;;;3.60;2.60;;;18.20;99.20;;;19.07;100.00;98390.94;5059273;28;20486;-79
2022/08/02 02:03:48;;;;;;;2.60;2.37;;;18.10;99.40;;;18.99;100.00;98382.53;5062054;28;20480;-78
2022/08/02 02:06:20;;;;;;;4.33;2.57;;;18.10;99.40;;;19.02;100.00;98390.03;5061486;28;20432;-78
2022/08/02 02:08:52;;;;;;;2.90;2.13;;;18.10;99.40;;;19.06;100.00;98393.81;5061608;28;20449;-78
2022/08/02 02:11:22;;;;;;;2.70;2.20;;;18.10;99.50;;;19.02;100.00;98382.84;5061074;28;21037;-78
2022/08/02 02:14:13;;;;;;;3.20;2.90;;;18.00;99.80;;;18.98;100.00;98383.56;5062395;28;20543;-78
2022/08/02 02:16:48;;;;;;;3.00;2.20;;;17.90;99.80;;;18.95;100.00;98387.47;5063141;28;20461;-78
2022/08/02 02:19:21;;;;;;;3.23;2.57;;;17.90;99.80;;;18.91;100.00;98381.06;5058253;28;21088;-78
2022/08/02 02:21:51;;;;;;;9.00;3.77;;;18.00;99.90;;;18.90;100.00;98378.63;5061914;28;20476;-78
2022/08/02 02:24:20;;;;;;;3.30;2.70;;;17.90;99.90;;;18.96;100.00;98373.19;5062336;28;20494;-78
2022/08/02 02:26:51;;;;;;;4.63;2.23;;;17.90;99.90;;;18.94;100.00;98366.53;5063451;28;20465;-78
2022/08/02 02:29:25;;;;;;;3.60;2.93;;;17.90;99.80;;;18.83;100.00;98367.34;5060495;28;20484;-78
2022/08/02 02:31:58;;;;;;;4.03;2.97;;;17.80;99.90;;;18.79;100.00;98367.00;5060407;28;20496;-78
2022/08/02 02:34:33;;;;;;;6.07;2.70;;;17.80;99.90;;;18.82;100.00;98373.66;5063096;28;20494;-79
2022/08/02 02:37:08;;;;;;;5.10;2.80;;;17.80;99.90;;;18.83;100.00;98375.28;5060176;28;20459;-78
2022/08/02 02:39:42;;;;;;;2.57;2.30;;;17.80;99.90;;;18.75;100.00;98378.28;5061677;28;20470;-79
2022/08/02 02:42:16;;;;;;;2.47;2.20;;;17.80;99.90;;;18.75;100.00;98375.63;5057785;28;20481;-78
2022/08/02 02:44:48;;;;;;;3.20;2.60;;;17.80;99.90;;;18.74;100.00;98374.03;5061080;28;21053;-79
2022/08/02 02:47:22;;;;;;;3.70;2.43;;;17.70;99.90;;;18.72;100.00;98371.59;5060108;28;20457;-79
2022/08/02 02:50:11;;;;;;;4.83;2.97;;;17.70;99.90;;;18.68;100.00;98381.03;5060749;28;20920;-78
2022/08/02 02:52:41;;;;;;;6.40;2.77;;;17.80;99.90;;;18.70;100.00;98378.16;5061309;28;20509;-78
2022/08/02 02:55:11;;;;;;;6.83;2.80;;;17.80;99.90;;;18.70;100.00;98376.34;5061728;28;20511;-79
2022/08/02 02:57:44;;;;;;;2.93;2.40;;;17.80;99.90;;;18.69;100.00;98379.19;5063332;28;20468;-78
2022/08/02 03:00:15;;;;;;;3.13;2.70;;;17.80;99.90;;;18.71;100.00;98385.09;5059879;28;20494;-78
2022/08/02 03:02:47;;;;;;;2.60;2.40;;;17.80;99.90;;;18.70;100.00;98375.53;5059099;28;20826;-79
2022/08/02 03:05:16;;;;;;;4.60;2.80;;;17.70;99.90;;;18.65;100.00;98378.03;5060859;28;20481;-80
2022/08/02 03:07:45;;;;;;;4.10;2.70;;;17.60;99.90;;;18.67;100.00;98378.63;5057161;28;20487;-79
2022/08/02 03:10:13;;;;;;;10.33;3.30;;;17.60;99.90;;;18.68;100.00;98383.69;5058667;28;20508;-85
2022/08/02 03:12:43;;;;;;;4.23;2.57;;;17.60;99.90;;;18.68;100.00;98380.22;5056323;28;20478;-79
2022/08/02 03:15:15;;;;;;;4.30;2.70;;;17.60;99.90;;;18.68;100.00;98374.94;5060280;28;20472;-80
2022/08/02 03:17:47;;;;;;;3.27;2.50;;;17.70;99.90;;;18.70;100.00;98375.53;5058868;28;20553;-78
2022/08/02 03:20:18;;;;;;;4.13;2.77;;;17.60;99.90;;;18.67;100.00;98378.63;5058218;28;20837;-79
2022/08/02 03:22:48;;;;;;;5.30;2.50;;;17.60;99.90;;;18.64;100.00;98373.81;5055284;28;20956;-79
2022/08/02 03:25:18;;;;;;;3.27;2.90;;;17.60;99.90;;;18.62;100.00;98375.84;5058539;28;20878;-82
2022/08/02 03:27:47;;;;;;;6.03;4.10;;;17.60;99.90;;;18.59;100.00;98366.53;5056802;28;20893;-80
2022/08/02 03:30:16;;;;;;;6.00;2.93;;;17.60;99.90;;;18.58;100.00;98371.03;5056378;28;20480;-80
2022/08/02 03:32:48;;;;;;;3.30;3.00;;;17.50;99.90;;;18.59;100.00;98361.25;5057914;28;20919;-79
2022/08/02 03:35:20;;;;;;;3.23;2.93;;;17.60;99.90;;;18.62;100.00;98367.91;5059741;28;21164;-79
2022/08/02 03:37:56;;;;;;;3.23;2.93;;;17.60;99.90;;;18.56;100.00;98365.16;5060922;28;20447;-78
2022/08/02 03:40:28;;;;;;;3.23;2.93;;;17.50;99.90;;;18.54;100.00;98361.91;5052810;28;20456;-78
2022/08/02 03:42:57;;;;;;;3.63;2.57;;;17.50;99.90;;;18.48;100.00;98364.66;5056921;28;21061;-79
2022/08/02 03:45:28;;;;;;;2.60;2.33;;;17.50;99.90;;;18.48;100.00;98362.00;5059038;28;20521;-79
2022/08/02 03:48:01;;;;;;;3.17;2.87;;;17.50;99.90;;;18.52;100.00;98365.84;5057035;28;20485;-79
2022/08/02 03:50:51;;;;;;;7.00;3.07;;;17.50;99.90;;;18.52;100.00;98365.84;5055799;28;20544;-79
2022/08/02 03:53:23;;;;;;;4.37;2.80;;;17.50;99.90;;;18.50;100.00;98366.06;5058432;28;20484;-84
2022/08/02 03:55:53;;;;;;;3.60;3.20;;;17.50;99.90;;;18.49;100.00;98366.28;5056149;28;20457;-79
2022/08/02 03:58:24;;;;;;;3.50;2.97;;;17.40;99.90;;;18.47;100.00;98366.50;5059180;28;20452;-79
2022/08/02 04:00:57;;;;;;;5.83;3.07;;;17.40;99.90;;;18.48;100.00;98359.34;5059292;28;20871;-79
2022/08/02 04:03:28;;;;;;;3.67;3.00;;;17.40;99.90;;;18.48;100.00;98356.69;5059186;28;20460;-79
2022/08/02 04:05:57;;;;;;;5.63;3.10;;;17.40;99.90;;;18.49;100.00;98364.44;5060605;28;20473;-79
2022/08/02 04:08:32;;;;;;;6.13;4.40;;;17.40;99.90;;;18.48;100.00;98365.47;5057828;28;20966;-78
2022/08/02 04:13:54;;;;;;;7.87;3.00;;;17.40;99.90;;;18.47;100.00;98361.19;5058131;28;20464;-79
2022/08/02 04:16:38;;;;;;;7.47;5.07;;;17.40;99.90;;;18.42;100.00;98355.78;5058754;28;20490;-83
2022/08/02 04:19:13;;;;;;;4.10;3.07;;;17.40;99.90;;;18.42;100.00;98355.78;5058375;28;20911;-79
2022/08/02 04:21:48;;;;;;;3.50;3.20;;;17.30;99.90;;;18.41;100.00;98370.06;5056572;28;20515;-79
2022/08/02 04:24:26;;;;;;;5.90;3.20;;;17.30;99.90;;;18.38;100.00;98365.22;5058924;28;20491;-79
2022/08/02 04:26:58;;;;;;;3.00;2.50;;;17.30;99.90;;;18.40;100.00;98371.09;5059497;28;20460;-79
2022/08/02 04:29:49;;;;;;;3.43;2.80;;;17.30;99.90;;;18.32;100.00;98376.75;5058194;28;20552;-79
2022/08/02 04:32:18;;;;;;;7.00;3.03;;;17.30;99.90;;;18.22;100.00;98383.63;5057764;28;21215;-79
2022/08/02 04:34:48;;;;;;;4.40;3.10;;;17.30;99.90;;;18.13;100.00;98383.13;5058560;28;20490;-79
2022/08/02 04:37:38;;;;;;;3.50;3.17;;;17.30;99.90;;;18.11;100.00;98385.22;5058048;28;20556;-79
2022/08/02 04:40:28;;;;;;;6.15;3.90;;;17.20;99.90;;;18.04;100.00;98397.75;5058419;28;20461;-79
2022/08/02 04:42:57;;;;;;;5.30;3.23;;;17.20;99.90;;;18.02;100.00;98390.00;5060108;28;20254;-79
2022/08/02 04:45:28;;;;;;;4.80;3.50;;;17.10;99.90;;;18.00;100.00;98389.44;5058210;28;20473;-79
2022/08/02 04:47:58;;;;;;;3.47;3.07;;;17.20;99.90;;;17.95;100.00;98391.94;5060239;28;20457;-79
2022/08/02 04:50:36;;;;;;;3.77;3.20;;;17.10;99.90;;;17.98;100.00;98388.84;5060678;28;20457;-79
2022/08/02 04:53:06;;;;;;;4.53;4.10;;;17.00;99.90;;;17.99;100.00;98389.66;5061720;28;20456;-79
2022/08/02 04:55:35;;;;;;;5.17;3.50;;;17.00;99.90;;;18.00;100.00;98384.16;5061191;28;20465;-79
2022/08/02 04:58:04;;;;;;;6.30;3.97;;;17.10;99.90;;;17.97;100.00;98389.09;5058058;28;20807;-78
2022/08/02 05:00:52;;;;;;;3.60;2.93;;;17.10;99.90;;;17.90;100.00;98383.88;5060654;28;20570;-79
2022/08/02 05:03:21;;;;;;;6.57;3.07;;;17.10;99.90;;;17.84;100.00;98390.06;5060701;28;20432;-78
2022/08/02 05:05:51;;;;;;;3.53;3.10;;;17.10;99.90;;;17.78;100.00;98395.44;5060216;28;20495;-79
2022/08/02 05:08:20;;;;;;;5.47;3.33;;;17.10;99.90;;;17.73;100.00;98403.25;5061570;28;20974;-79
2022/08/02 05:10:48;;;;;;;3.77;3.47;;;17.10;99.90;;;17.70;100.00;98401.06;5058753;28;20873;-79
2022/08/02 05:13:17;;;;;;;4.83;3.73;;;17.00;99.90;;;17.67;100.00;98398.88;5061306;28;20468;-79
2022/08/02 05:15:48;;;;;;;3.43;3.13;;;17.00;99.90;;;17.64;100.00;98396.66;5055315;28;20445;-79
2022/08/02 05:18:17;;;;;;;3.60;3.27;;;17.00;99.90;;;17.65;100.00;98396.44;5057188;28;20456;-79
2022/08/02 05:20:46;;;;;;;5.63;2.93;;;16.90;99.90;;;17.57;100.00;98402.84;5059688;28;20574;-79
2022/08/02 05:23:17;;;;;;;5.77;3.20;;;16.90;99.90;;;17.58;100.00;98407.09;5062810;28;20446;-79
2022/08/02 05:25:46;;;;;;;3.53;3.23;;;16.90;99.90;;;17.57;100.00;98405.47;5060127;28;20460;-79
2022/08/02 05:28:15;;;;;;;4.40;3.90;;;16.90;99.90;;;17.59;100.00;98407.91;5060255;28;20517;-79
2022/08/02 05:30:46;;;;;;;7.93;3.30;;;17.00;99.90;;;17.57;100.00;98415.25;5062755;28;20543;-78
2022/08/02 05:33:17;;;;;;;5.77;3.53;;;16.90;99.90;;;17.55;100.00;98406.72;5064505;28;20559;-79
2022/08/02 05:35:45;;;;;;;3.87;3.40;;;16.90;99.90;;;17.56;100.00;98403.84;5060836;28;20464;-78
2022/08/02 05:38:16;;;;;;;4.77;4.13;;;16.90;99.90;;;17.60;100.00;98405.03;5063218;28;20492;-79
2022/08/02 05:40:47;;;;;;;4.93;4.27;;;16.90;99.90;;;17.65;100.00;98406.19;5064083;28;21065;-78
2022/08/02 05:43:23;;;;;;;4.57;3.30;;;16.90;99.90;;;17.67;100.00;98404.94;5064811;28;20475;-79
2022/08/02 05:45:53;;;;;;;5.80;3.30;;;16.90;99.90;;;17.71;100.00;98402.66;5064524;28;20449;-79
2022/08/02 05:48:22;;;;;;;6.27;3.80;;;16.90;99.90;;;17.77;100.00;98394.63;5062697;28;20504;-79
2022/08/02 05:51:05;;;;;;;4.57;3.90;;;16.90;99.90;;;17.89;100.00;98397.34;5061855;28;20488;-79
2022/08/02 05:53:45;;;;;;;5.00;4.23;;;16.90;99.90;;;17.97;100.00;98391.72;5063660;28;20518;-79
2022/08/02 05:56:25;;;;;;;6.43;4.40;;;17.00;99.90;;;18.04;100.00;98401.19;5063595;28;21005;-79
2022/08/02 05:59:03;;;;;;;6.00;3.77;;;17.10;99.90;;;18.10;100.00;98404.75;5066278;28;20452;-78
2022/08/02 06:01:37;;;;;;;4.13;3.73;;;17.10;99.90;;;18.17;100.00;98400.19;5062198;28;20492;-79
2022/08/02 06:04:09;;;;;;;5.60;4.20;;;17.20;99.90;;;18.23;100.00;98401.91;5063814;28;20486;-79
2022/08/02 06:06:44;;;;;;;5.00;3.27;;;17.30;99.90;;;18.30;100.00;98399.97;5064587;28;20464;-79
2022/08/02 06:09:17;;;;;;;5.47;3.60;;;17.30;99.90;;;18.36;100.00;98404.34;5062776;28;20508;-79
2022/08/02 06:11:59;;;;;;;4.17;3.40;;;17.40;99.90;;;18.42;100.00;98402.66;5064397;28;20987;-79
2022/08/02 06:14:32;;;;;;;3.80;3.27;;;17.50;99.90;;;18.48;100.00;98397.25;5062759;28;20466;-79
2022/08/02 06:17:05;;;;;;;5.80;3.77;;;17.50;99.90;;;18.55;100.00;98400.63;5064531;28;20456;-79
2022/08/02 06:19:36;;;;;;;4.30;3.33;;;17.60;99.90;;;18.65;100.00;98397.41;5063485;28;20444;-79
2022/08/02 06:22:20;;;;;;;4.40;3.30;;;17.70;99.90;;;18.74;100.00;98396.03;5061814;28;20472;-78
2022/08/02 06:25:08;;;;;;;3.87;3.47;;;17.80;99.90;;;18.84;100.00;98400.75;5062952;28;21050;-79
2022/08/02 06:27:59;;;;;;;5.73;4.17;;;17.90;99.90;;;18.92;100.00;98403.03;5063695;28;20441;-79
2022/08/02 06:30:29;;;;;;;7.03;3.90;;;18.10;99.90;;;18.99;100.00;98399.22;5063035;28;20453;-79
2022/08/02 06:33:01;;;;;;;4.80;2.93;;;18.10;99.90;;;19.07;100.00;98400.72;5064032;28;20460;-78
2022/08/02 06:35:50;;;;;;;3.87;3.27;;;18.20;99.90;;;19.15;100.00;98397.72;5061162;28;20495;-79
2022/08/02 06:38:25;;;;;;;6.33;3.43;;;18.30;99.90;;;19.22;100.00;98398.41;5063337;28;20460;-79
2022/08/02 06:41:04;;;;;;;5.33;3.43;;;18.40;99.90;;;19.31;100.00;98391.69;5062701;28;21063;-79
2022/08/02 06:43:47;;;;;;;16.80;3.60;;;18.50;99.90;;;19.37;100.00;98392.59;5062778;28;20939;-79
2022/08/02 06:46:16;;;;;;;19.43;4.20;;;18.60;99.90;;;19.44;100.00;98386.16;5064077;28;20947;-79
2022/08/02 06:49:05;;;;;;;4.27;3.77;;;18.70;99.90;;;19.51;100.00;98384.16;5064348;28;20496;-79
2022/08/02 06:51:35;;;;;;;5.17;3.70;;;18.80;99.90;;;19.59;100.00;98385.66;5062034;28;20515;-79
2022/08/02 06:54:05;;;;;;;10.10;4.17;;;18.90;99.90;;;19.65;100.00;98381.22;5062790;28;20452;-78
2022/08/02 06:56:35;;;;;;;5.53;3.63;;;19.00;99.90;;;19.73;100.00;98380.88;5061439;28;20453;-79
2022/08/02 06:59:05;;;;;;;5.33;3.87;;;19.10;99.90;;;19.82;100.00;98385.53;5063589;28;21164;-79
2022/08/02 07:01:34;;;;;;;6.43;3.67;;;19.10;99.90;;;19.92;100.00;98387.59;5063598;28;20512;-79
2022/08/02 07:04:06;;;;;;;5.10;4.23;;;19.20;99.90;;;20.01;100.00;98380.84;5061752;28;20481;-79
2022/08/02 07:06:36;;;;;;;5.53;3.70;;;19.30;99.90;;;20.09;100.00;98377.81;5061525;28;20905;-78
2022/08/02 07:09:05;;;;;;;3.97;3.27;;;19.30;99.90;;;20.18;100.00;98372.91;5061112;28;20456;-79
2022/08/02 07:11:50;;;;;;;7.87;4.30;;;19.40;99.90;;;20.28;100.00;98375.75;5063423;28;20443;-79
2022/08/02 07:14:19;;;;;;;4.70;4.00;;;19.60;99.90;;;20.34;100.00;98374.81;5063707;28;20468;-79
2022/08/02 07:16:48;;;;;;;5.63;3.30;;;19.60;99.90;;;20.39;100.00;98375.69;5061683;28;20554;-79
2022/08/02 07:19:16;;;;;;;5.37;3.50;;;19.60;99.90;;;20.46;100.00;98378.97;5061844;28;20453;-79
2022/08/02 07:21:45;;;;;;;7.13;3.77;;;19.70;99.90;;;20.52;100.00;98375.34;5059751;28;21051;-79
2022/08/02 07:24:34;;;;;;;3.47;2.97;;;19.70;99.90;;;20.59;100.00;98381.31;5062067;28;20533;-79
2022/08/02 07:27:06;;;;;;;5.73;3.40;;;19.80;99.90;;;20.66;100.00;98383.00;5061824;28;20437;-79
2022/08/02 07:29:40;;;;;;;4.90;2.90;;;19.90;99.90;;;20.72;100.00;98371.41;5060818;28;20448;-79
2022/08/02 07:32:15;;;;;;;5.57;3.00;;;19.90;99.90;;;20.76;100.00;98375.16;5060690;28;20472;-79
2022/08/02 07:34:44;;;;;;;5.43;2.83;;;20.00;99.90;;;20.83;100.00;98378.44;5061047;28;20460;-78
2022/08/02 07:37:23;;;;;;;2.97;2.67;;;20.00;99.80;;;20.90;100.00;98376.44;5060963;28;20460;-79
2022/08/02 07:40:15;;;;;;;3.07;2.43;;;20.10;99.50;;;20.94;100.00;98370.38;5061540;28;20476;-79
2022/08/02 07:42:51;;;;;;;3.03;2.53;;;20.10;99.30;;;21.02;100.00;98366.50;5062336;28;20499;-79
2022/08/02 07:45:25;;;;;;;3.10;2.50;;;20.30;99.40;;;21.08;100.00;98361.00;5061999;28;20802;-79
2022/08/02 07:47:55;;;;;;;3.23;2.40;;;20.40;99.10;;;21.16;100.00;98357.16;5061269;28;20513;-79
2022/08/02 07:50:27;;;;;;;2.50;2.23;;;20.50;98.90;;;21.23;100.00;98362.28;5062639;28;20452;-79
2022/08/02 07:52:55;;;;;;;3.77;2.33;;;20.60;98.90;;;21.30;100.00;98357.56;5059121;28;20457;-79
2022/08/02 07:55:26;;;;;;;2.73;2.20;;;20.60;98.80;;;21.36;100.00;98356.56;5060901;28;20453;-79
2022/08/02 07:58:11;;;;;;;6.13;2.53;;;20.70;98.30;;;21.42;100.00;98356.38;5061902;28;20453;-79
2022/08/02 08:00:43;;;;;;;4.90;2.10;;;20.70;98.30;;;21.49;100.00;98349.00;5060507;28;20572;-79
2022/08/02 08:03:12;;;;;;;2.20;2.00;;;20.80;98.30;;;21.55;100.00;98347.22;5060701;28;20977;-79
2022/08/02 08:05:41;;;;;;;4.40;2.67;;;20.80;97.40;;;21.62;100.00;98350.50;5060998;28;20465;-79
2022/08/02 08:08:10;;;;;;;4.60;2.17;;;21.00;97.70;;;21.68;100.00;98348.69;5060269;28;20432;-79
2022/08/02 08:10:45;;;;;;;5.40;2.27;;;20.90;97.60;;;21.74;100.00;98351.13;5061116;28;20582;-79
2022/08/02 08:13:15;;;;;;;3.53;1.97;;;21.00;97.80;;;21.79;100.00;98350.41;5060810;28;20492;-79
2022/08/02 08:15:44;;;;;;;5.10;2.33;;;21.10;97.40;;;21.86;100.00;98346.47;5062508;28;20433;-79
2022/08/02 08:18:20;;;;;;;2.40;2.20;;;21.10;97.40;;;21.93;100.00;98351.63;5061240;28;21214;-80
2022/08/02 08:20:50;;;;;;;2.20;2.00;;;21.20;97.20;;;21.99;96.98;98356.75;5060442;28;20487;-79
2022/08/02 08:23:19;;;;;;;2.10;1.80;;;21.40;96.90;;;22.04;93.37;98350.69;5059531;28;20444;-79
2022/08/02 08:25:49;;;;;;;2.43;1.80;;;21.40;96.20;;;22.15;91.86;98348.88;5058386;28;20466;-79
2022/08/02 08:28:19;;;;;;;4.00;2.10;;;21.50;95.80;;;22.27;89.59;98349.53;5060963;28;20461;-79
2022/08/02 08:30:49;;;;;;;2.67;1.90;;;21.60;95.50;;;22.32;88.42;98341.59;5058313;28;20464;-79
2022/08/02 08:33:18;;;;;;;2.80;1.93;;;21.70;95.30;;;22.38;88.73;98344.03;5058975;28;20496;-79
2022/08/02 08:35:46;;;;;;;2.47;2.10;;;21.70;95.40;;;22.45;88.68;98346.47;5058932;28;20948;-79
2022/08/02 08:38:17;;;;;;;3.30;1.77;;;21.80;95.40;;;22.53;88.13;98341.44;5061005;28;20456;-79
2022/08/02 08:40:47;;;;;;;2.17;1.97;;;21.90;95.40;;;22.61;87.92;98342.03;5060287;28;20488;-80
2022/08/02 08:43:15;;;;;;;2.90;2.20;;;22.00;95.30;;;22.69;86.90;98344.25;5061474;28;20522;-79
2022/08/02 08:45:46;;;;;;;2.07;1.90;;;22.10;95.00;;;22.76;85.25;98350.97;5060088;28;20453;-80
2022/08/02 08:48:25;;;;;;;4.83;2.27;;;22.20;94.60;;;22.82;80.79;98339.25;5059875;28;20459;-80
2022/08/02 08:51:10;;;;;;;3.17;2.00;;;22.30;93.60;;;22.87;79.99;98346.50;5060418;28;20463;-80
2022/08/02 08:53:43;;;;;;;2.00;1.80;;;22.40;93.40;;;22.93;79.56;98348.13;5060883;28;20855;-79
2022/08/02 08:56:13;;;;;;;2.40;1.80;;;22.30;93.30;;;23.00;77.13;98359.38;5060005;28;20473;-79
2022/08/02 08:58:46;;;;;;;2.90;1.90;;;22.40;92.80;;;23.05;76.70;98351.38;5060383;28;20478;-79
2022/08/02 09:01:16;;;;;;;2.07;1.77;;;22.50;92.70;;;23.06;77.10;98345.00;5058307;28;20507;-79
2022/08/02 09:03:45;;;;;;;2.40;1.73;;;22.40;93.00;;;23.10;76.59;98350.59;5060761;28;20451;-79
2022/08/02 09:06:14;;;;;;;1.73;1.63;;;22.50;92.90;;;23.10;76.27;98351.41;5059544;28;20461;-79
2022/08/02 09:08:43;;;;;;;3.03;2.07;;;22.50;92.60;;;23.08;76.52;98350.88;5059628;28;20457;-79
2022/08/02 09:11:17;;;;;;;2.00;1.70;;;22.30;92.90;;;23.12;76.72;98356.50;5060118;28;20522;-79
2022/08/02 09:13:54;;;;;;;2.17;1.80;;;22.40;92.70;;;23.16;76.82;98352.22;5060607;28;20953;-79
2022/08/02 09:16:36;;;;;;;2.07;1.67;;;22.50;92.90;;;23.16;76.42;98353.03;5061591;28;20838;-79
2022/08/02 09:19:20;;;;;;;8.17;1.90;;;22.40;92.70;;;23.17;76.31;98346.66;5061023;28;20440;-79
2022/08/02 09:21:50;;;;;;;1.93;1.67;;;22.40;92.70;;;23.21;75.98;98342.41;5060335;28;20476;-80
2022/08/02 09:24:21;;;;;;;8.87;1.90;;;22.50;92.70;;;23.25;76.24;98343.50;5060897;28;21093;-79
2022/08/02 09:26:51;;;;;;;2.70;2.17;;;22.50;92.80;;;23.30;74.11;98335.47;5062129;28;20483;-79
2022/08/02 09:29:24;;;;;;;2.00;1.80;;;22.70;92.30;;;23.38;73.81;98334.19;5060041;28;20488;-78
2022/08/02 09:32:03;;;;;;;3.17;2.13;;;22.70;92.50;;;23.43;72.26;98329.69;5061379;28;20533;-79
2022/08/02 09:34:48;;;;;;;4.93;2.20;;;22.70;92.00;;;23.51;72.87;98331.84;5061624;28;20456;-79
2022/08/02 09:37:25;;;;;;;1.67;1.53;;;22.80;92.30;;;23.57;73.48;98329.97;5060110;28;20517;-79
2022/08/02 09:39:58;;;;;;;2.10;1.90;;;22.90;92.30;;;23.63;73.08;98333.47;5060537;28;20464;-79
2022/08/02 09:42:28;;;;;;;1.97;1.70;;;22.90;92.20;;;23.70;73.70;98326.03;5059523;28;20497;-79
2022/08/02 09:45:00;;;;;;;3.10;1.77;;;23.00;92.30;;;23.79;70.78;98327.09;5060489;28;20479;-80
2022/08/02 09:47:32;;;;;;;2.10;1.70;;;23.10;91.80;;;23.93;69.58;98325.50;5062003;28;20453;-79
2022/08/02 09:50:06;;;;;;;6.37;1.77;;;23.30;91.50;;;24.01;68.60;98338.34;5061242;28;21042;-79
2022/08/02 09:52:43;;;;;;;1.90;1.70;;;23.30;91.30;;;24.09;69.53;98329.78;5058199;28;20476;-79
2022/08/02 09:55:13;;;;;;;5.63;1.93;;;23.40;91.60;;;24.15;66.26;98325.28;5060515;28;20464;-78
2022/08/02 09:57:42;;;;;;;1.50;1.40;;;23.60;90.60;;;24.21;65.04;98327.69;5061246;28;20473;-79
2022/08/02 10:00:18;;;;;;;4.80;1.70;;;23.70;90.30;;;24.26;63.88;98327.66;5060270;28;20464;-79
2022/08/02 10:03:10;;;;;;;2.53;1.63;;;23.60;90.10;;;24.32;63.56;98331.16;5059734;28;21287;-79
2022/08/02 10:05:52;;;;;;;2.77;1.97;;;23.60;90.10;;;24.38;63.66;98325.53;5059200;28;20563;-79
2022/08/02 10:08:30;;;;;;;2.27;1.70;;;23.70;90.30;;;24.38;61.83;98314.03;5060737;28;20509;-79
2022/08/02 10:11:02;;;;;;;1.77;1.50;;;23.60;89.10;;;24.39;60.48;98321.81;5059253;28;20802;-79
2022/08/02 10:13:33;;;;;;;1.80;1.57;;;23.70;88.80;;;24.46;61.26;98322.34;5058986;28;20550;-79
2022/08/02 10:16:05;;;;;;;1.87;1.70;;;23.80;89.10;;;24.51;61.44;98318.81;5062166;28;20457;-79
2022/08/02 10:18:35;;;;;;;2.23;1.50;;;23.90;88.90;;;24.58;60.67;98323.91;5064266;28;20453;-79
2022/08/02 10:21:12;;;;;;;2.10;1.80;;;24.00;89.10;;;24.59;59.65;98315.63;5062941;28;20455;-80
2022/08/02 10:23:45;;;;;;;3.13;1.60;;;23.90;88.30;;;24.67;59.18;98316.94;5061732;28;20497;-79
2022/08/02 10:26:18;;;;;;;2.07;1.60;;;24.10;88.10;;;24.74;58.29;98309.44;5064620;28;20518;-79
2022/08/02 10:28:49;;;;;;;2.50;1.40;;;24.10;87.40;;;24.81;58.48;98304.59;5063193;28;20955;-80
2022/08/02 10:31:30;;;;;;;2.63;1.50;;;24.20;87.80;;;24.87;58.48;98298.19;5063507;28;20468;-79
2022/08/02 10:34:03;;;;;;;2.70;1.60;;;24.20;87.80;;;24.88;57.51;98302.47;5062010;28;20959;-79
2022/08/02 10:36:34;;;;;;;1.80;1.50;;;24.20;87.20;;;24.86;57.39;98305.41;5063185;28;20473;-79
2022/08/02 10:39:04;;;;;;;2.43;1.50;;;24.20;86.90;;;24.87;58.30;98307.00;5064827;28;20442;-80
2022/08/02 10:41:45;;;;;;;1.87;1.53;;;24.30;87.90;;;24.89;58.78;98298.69;5060980;28;20575;-79